Terminal Aerodrome Forecast
Issued by NWS Bismarck, ND

Home | Current Version | Previous Version | Text Only | Print | Product List | Glossary On
Versions: 1 2 3 4 5 6 7 8 9 10 11 12 13 14 15 16 17
372
FTUS43 KBIS 101124
TAFISN
TAF
KISN 101124Z 1012/1112 10005KT P6SM OVC060
     FM101700 11011KT P6SM -SN OVC020
     FM110000 10010KT 2SM -SN BR OVC015
     FM110900 09004KT P6SM OVC015=

USA.gov is the U.S. government's official web portal to all federal, state and local government web resources and services.